createdAt,value
2022-10-22T00:02:07.669Z,100525.25
2022-10-22T00:04:35.787Z,100518.91
2022-10-22T00:07:03.765Z,100519.66
2022-10-22T00:09:31.646Z,100512.97
2022-10-22T00:11:59.354Z,100520.81
2022-10-22T00:14:27.168Z,100510.91
2022-10-22T00:16:56.322Z,100514.31
2022-10-22T00:19:25.375Z,100518.44
2022-10-22T00:21:53.171Z,100518.31
2022-10-22T00:24:20.934Z,100514.13
2022-10-22T00:26:48.715Z,100516.97
2022-10-22T00:29:18.672Z,100513.41
2022-10-22T00:31:49.745Z,100504.09
2022-10-22T00:34:17.942Z,100515.25
2022-10-22T00:36:47.326Z,100503.59
2022-10-22T00:39:16.180Z,100495.91
2022-10-22T00:41:44.288Z,100495.31
2022-10-22T00:44:45.281Z,100486.03
2022-10-22T00:47:13.465Z,100496.34
2022-10-22T00:49:42.594Z,100498.00
2022-10-22T00:52:12.465Z,100508.19
2022-10-22T00:54:40.711Z,100520.47
2022-10-22T00:57:08.593Z,100521.25
2022-10-22T00:59:37.705Z,100519.56
2022-10-22T01:02:05.493Z,100526.47
2022-10-22T01:04:33.966Z,100532.81
2022-10-22T01:07:02.074Z,100534.78
2022-10-22T01:09:35.571Z,100523.72
2022-10-22T01:12:06.329Z,100532.97
2022-10-22T01:14:37.541Z,100528.28
2022-10-22T01:17:08.184Z,100537.69
2022-10-22T01:19:45.785Z,100538.06
2022-10-22T01:22:19.855Z,100508.84
2022-10-22T01:24:59.777Z,100505.31
2022-10-22T01:27:33.456Z,100497.22
2022-10-22T01:30:05.297Z,100500.69
2022-10-22T01:32:37.598Z,100498.34
2022-10-22T01:35:08.888Z,100488.41
2022-10-22T01:37:39.777Z,100491.22
2022-10-22T01:40:09.411Z,100491.34
2022-10-22T01:42:37.162Z,100489.41
2022-10-22T01:45:12.948Z,100505.28
2022-10-22T01:47:48.319Z,100502.66
2022-10-22T01:50:33.646Z,100498.75
2022-10-22T01:53:27.500Z,100505.63
2022-10-22T01:56:11.066Z,100514.38
2022-10-22T01:58:43.786Z,100511.19
2022-10-22T02:01:18.620Z,100517.34
2022-10-22T02:03:49.777Z,100517.69
2022-10-22T02:06:20.541Z,100515.09
2022-10-22T02:08:49.901Z,100507.28
2022-10-22T02:11:17.962Z,100512.69
2022-10-22T02:13:47.873Z,100511.41
2022-10-22T02:16:19.905Z,100528.22
2022-10-22T02:18:50.338Z,100526.41
2022-10-22T02:21:18.126Z,100523.72
2022-10-22T02:23:46.678Z,100514.38
2022-10-22T02:26:18.074Z,100509.19
2022-10-22T02:28:50.736Z,100502.09
2022-10-22T02:31:24.048Z,100505.00
2022-10-22T02:33:54.246Z,100498.13
2022-10-22T02:36:22.476Z,100503.34
2022-10-22T02:38:52.301Z,100503.91
2022-10-22T02:41:20.320Z,100502.88
2022-10-22T02:43:51.970Z,100512.56
2022-10-22T02:46:21.444Z,100517.09
2022-10-22T02:48:49.160Z,100513.09
2022-10-22T02:51:16.915Z,100515.75
2022-10-22T02:53:44.629Z,100520.72
2022-10-22T02:56:12.593Z,100526.91
2022-10-22T02:58:40.372Z,100524.28
2022-10-22T03:01:09.513Z,100525.75
2022-10-22T03:03:41.355Z,100513.16
2022-10-22T03:06:10.035Z,100506.78
2022-10-22T03:08:37.775Z,100506.44
2022-10-22T03:11:05.508Z,100506.09
2022-10-22T03:13:33.228Z,100499.41
2022-10-22T03:16:01.028Z,100506.00
2022-10-22T03:18:29.060Z,100504.22
2022-10-22T03:21:05.837Z,100502.66
2022-10-22T03:23:33.910Z,100503.34
2022-10-22T03:26:01.918Z,100497.47
2022-10-22T03:28:29.908Z,100501.16
2022-10-22T03:30:57.636Z,100502.16
2022-10-22T03:33:25.336Z,100510.81
2022-10-22T03:35:53.152Z,100516.88
2022-10-22T03:38:22.350Z,100507.28
2022-10-22T03:40:50.120Z,100506.13
2022-10-22T03:43:18.108Z,100513.19
2022-10-22T03:45:45.819Z,100511.06
2022-10-22T03:48:13.510Z,100509.31
2022-10-22T03:50:41.232Z,100501.84
2022-10-22T03:53:10.572Z,100505.59
2022-10-22T03:55:41.858Z,100513.38
2022-10-22T03:58:09.568Z,100522.28
2022-10-22T04:00:37.659Z,100522.81
2022-10-22T04:03:05.714Z,100527.66
2022-10-22T04:08:01.769Z,100532.09
2022-10-22T04:10:29.542Z,100536.50
2022-10-22T04:12:58.806Z,100544.16
2022-10-22T04:15:29.298Z,100546.31
2022-10-22T04:17:57.190Z,100546.69
2022-10-22T04:20:24.961Z,100566.03
2022-10-22T04:22:52.671Z,100563.47
2022-10-22T04:25:20.397Z,100560.56
2022-10-22T04:27:48.112Z,100556.28
2022-10-22T04:30:17.225Z,100549.94
2022-10-22T04:32:44.967Z,100549.78
2022-10-22T04:35:12.793Z,100542.91
2022-10-22T04:37:40.560Z,100547.53
2022-10-22T04:40:09.789Z,100542.84
2022-10-22T04:42:37.603Z,100544.41
2022-10-22T04:45:05.934Z,100538.38
2022-10-22T04:47:34.974Z,100541.56
2022-10-22T04:50:03.041Z,100552.88
2022-10-22T04:52:32.220Z,100540.59
2022-10-22T04:54:59.897Z,100546.50
2022-10-22T04:57:30.961Z,100542.41
2022-10-22T04:59:58.672Z,100543.69
2022-10-22T05:02:26.437Z,100545.94
2022-10-22T05:04:55.481Z,100536.19
2022-10-22T05:07:23.751Z,100536.28
2022-10-22T05:09:51.425Z,100548.31
2022-10-22T05:12:19.154Z,100545.69
2022-10-22T05:14:46.874Z,100546.81
2022-10-22T05:17:14.664Z,100553.66
2022-10-22T05:19:42.354Z,100546.00
2022-10-22T05:22:11.467Z,100545.19
2022-10-22T05:24:39.256Z,100556.88
2022-10-22T05:27:07.016Z,100551.16
2022-10-22T05:29:34.821Z,100555.13
2022-10-22T05:32:02.493Z,100549.38
2022-10-22T05:34:30.233Z,100553.25
2022-10-22T05:36:57.964Z,100548.06
2022-10-22T05:39:27.235Z,100558.34
2022-10-22T05:41:54.946Z,100550.25
2022-10-22T05:44:22.667Z,100550.53
2022-10-22T05:46:50.410Z,100561.91
2022-10-22T05:49:18.127Z,100565.81
2022-10-22T05:51:47.987Z,100568.66
2022-10-22T05:54:18.867Z,100578.22
2022-10-22T05:56:48.053Z,100574.34
2022-10-22T05:59:15.768Z,100578.34
2022-10-22T06:01:44.333Z,100573.91
2022-10-22T06:04:13.741Z,100582.91
2022-10-22T06:06:44.430Z,100581.50
2022-10-22T06:09:16.046Z,100584.66
2022-10-22T06:11:43.918Z,100571.56
2022-10-22T06:14:13.337Z,100576.81
2022-10-22T06:16:41.639Z,100574.41
2022-10-22T06:19:10.526Z,100573.81
2022-10-22T06:21:38.649Z,100569.69
2022-10-22T06:24:07.448Z,100585.69
2022-10-22T06:26:35.145Z,100598.66
2022-10-22T06:29:03.701Z,100593.25
2022-10-22T06:31:36.692Z,100601.59
2022-10-22T06:34:04.902Z,100607.88
2022-10-22T06:36:32.812Z,100616.78
2022-10-22T06:39:00.591Z,100620.03
2022-10-22T06:41:28.906Z,100621.63
2022-10-22T06:43:58.306Z,100625.19
2022-10-22T06:46:26.557Z,100627.53
2022-10-22T06:48:57.521Z,100627.03
2022-10-22T06:51:25.509Z,100623.97
2022-10-22T06:53:54.076Z,100633.88
2022-10-22T06:56:23.129Z,100632.03
2022-10-22T06:58:51.696Z,100628.34
2022-10-22T07:01:21.604Z,100634.59
2022-10-22T07:03:51.391Z,100629.00
2022-10-22T07:06:21.388Z,100627.72
2022-10-22T07:08:49.512Z,100623.56
2022-10-22T07:11:19.024Z,100626.50
2022-10-22T07:13:47.658Z,100628.84
2022-10-22T07:16:16.124Z,100634.31
2022-10-22T07:18:44.572Z,100639.84
2022-10-22T07:21:13.669Z,100637.69
2022-10-22T07:23:42.862Z,100633.06
2022-10-22T07:26:10.918Z,100634.66
2022-10-22T07:28:39.868Z,100643.53
2022-10-22T07:31:08.418Z,100647.28
2022-10-22T07:33:36.771Z,100651.09
2022-10-22T07:36:06.686Z,100651.81
2022-10-22T07:38:34.995Z,100650.38
2022-10-22T07:41:15.587Z,100658.28
2022-10-22T07:43:43.805Z,100667.19
2022-10-22T07:46:11.828Z,100670.50
2022-10-22T07:48:44.566Z,100677.44
2022-10-22T07:51:12.346Z,100683.69
2022-10-22T07:53:40.299Z,100690.63
2022-10-22T07:56:09.753Z,100683.03
2022-10-22T07:58:37.609Z,100693.88
2022-10-22T08:01:06.552Z,100691.94
2022-10-22T08:03:34.785Z,100696.69
2022-10-22T08:06:02.867Z,100695.63
2022-10-22T08:08:31.231Z,100689.41
2022-10-22T08:11:01.852Z,100690.22
2022-10-22T08:13:31.636Z,100694.06
2022-10-22T08:16:00.265Z,100689.28
2022-10-22T08:18:28.765Z,100690.19
2022-10-22T08:20:56.673Z,100694.00
2022-10-22T08:23:27.462Z,100700.91
2022-10-22T08:25:57.251Z,100694.78
2022-10-22T08:28:25.099Z,100710.06
2022-10-22T08:30:54.269Z,100709.31
2022-10-22T08:33:22.326Z,100709.50
2022-10-22T08:35:50.611Z,100724.34
2022-10-22T08:38:18.614Z,100719.88
2022-10-22T08:40:50.835Z,100724.59
2022-10-22T08:43:37.828Z,100728.13
2022-10-22T08:46:15.490Z,100731.59
2022-10-22T08:48:46.944Z,100725.88
2022-10-22T08:51:18.321Z,100721.06
2022-10-22T08:53:54.999Z,100722.66
2022-10-22T08:56:23.506Z,100724.44
2022-10-22T08:58:56.649Z,100722.09
2022-10-22T09:01:32.764Z,100728.91
2022-10-22T09:04:04.677Z,100728.81
2022-10-22T09:06:34.641Z,100729.44
2022-10-22T09:09:06.503Z,100735.41
2022-10-22T09:11:36.181Z,100729.41
2022-10-22T09:14:04.419Z,100731.22
2022-10-22T09:16:38.422Z,100740.94
2022-10-22T09:19:16.683Z,100740.69
2022-10-22T09:21:53.359Z,100742.69
2022-10-22T09:24:32.171Z,100745.22
2022-10-22T09:27:01.953Z,100746.69
2022-10-22T09:29:34.066Z,100742.03
2022-10-22T09:32:03.344Z,100747.03
2022-10-22T09:34:31.202Z,100752.53
2022-10-22T09:36:59.909Z,100749.47
2022-10-22T09:39:29.591Z,100747.03
2022-10-22T09:41:57.289Z,100760.81
2022-10-22T09:44:25.207Z,100768.72
2022-10-22T09:46:52.913Z,100759.16
2022-10-22T09:49:23.954Z,100767.63
2022-10-22T09:51:54.507Z,100765.03
2022-10-22T09:54:24.470Z,100769.56
2022-10-22T09:56:57.911Z,100764.66
2022-10-22T09:59:29.277Z,100767.44
2022-10-22T10:02:13.328Z,100767.44
2022-10-22T10:04:50.882Z,100766.03
2022-10-22T10:07:20.373Z,100768.56
2022-10-22T10:09:48.560Z,100765.09
2022-10-22T10:12:25.013Z,100772.78
2022-10-22T10:15:01.851Z,100772.00
2022-10-22T10:17:35.042Z,100778.56
2022-10-22T10:20:17.150Z,100786.69
2022-10-22T10:22:54.879Z,100774.44
2022-10-22T10:25:44.112Z,100782.53
2022-10-22T10:28:23.165Z,100769.34
2022-10-22T10:30:56.076Z,100774.59
2022-10-22T10:33:31.290Z,100778.28
2022-10-22T10:36:05.124Z,100770.84
2022-10-22T10:38:39.325Z,100769.16
2022-10-22T10:41:14.966Z,100768.41
2022-10-22T10:43:53.705Z,100765.97
2022-10-22T10:46:26.821Z,100767.81
2022-10-22T10:48:56.954Z,100765.38
2022-10-22T10:51:39.373Z,100776.50
2022-10-22T10:54:21.071Z,100773.63
2022-10-22T10:56:53.010Z,100773.53
2022-10-22T10:59:32.352Z,100768.53
2022-10-22T11:02:35.029Z,100777.97
2022-10-22T11:05:23.724Z,100774.66
2022-10-22T11:07:57.168Z,100770.28
2022-10-22T11:10:32.470Z,100780.22
2022-10-22T11:13:05.010Z,100774.94
2022-10-22T11:15:34.461Z,100771.88
2022-10-22T11:18:09.338Z,100774.38
2022-10-22T11:20:45.964Z,100776.22
2022-10-22T11:23:20.529Z,100783.28
2022-10-22T11:25:50.230Z,100768.13
2022-10-22T11:28:21.336Z,100766.41
2022-10-22T11:30:52.464Z,100771.75
2022-10-22T11:33:23.456Z,100770.59
2022-10-22T11:35:51.589Z,100770.72
2022-10-22T11:38:23.882Z,100770.03
2022-10-22T11:40:58.410Z,100771.31
2022-10-22T11:43:32.914Z,100771.06
2022-10-22T11:46:10.514Z,100777.63
2022-10-22T11:48:39.330Z,100771.72
2022-10-22T11:51:35.383Z,100771.19
2022-10-22T11:54:04.679Z,100765.56
2022-10-22T11:56:38.452Z,100770.69
2022-10-22T11:59:13.957Z,100771.59
2022-10-22T12:01:43.060Z,100763.16
2022-10-22T12:04:23.187Z,100770.38
2022-10-22T12:06:59.052Z,100766.59
2022-10-22T12:09:30.258Z,100769.13
2022-10-22T12:12:04.355Z,100771.78
2022-10-22T12:14:35.357Z,100770.56
2022-10-22T12:17:08.660Z,100767.06
2022-10-22T12:19:38.401Z,100768.25
2022-10-22T12:22:15.139Z,100778.25
2022-10-22T12:24:45.585Z,100780.25
2022-10-22T12:27:22.333Z,100777.75
2022-10-22T12:29:56.033Z,100765.41
2022-10-22T12:32:24.121Z,100778.50
2022-10-22T12:34:53.145Z,100770.16
2022-10-22T12:37:22.197Z,100773.00
2022-10-22T12:39:49.970Z,100781.94
2022-10-22T12:42:18.910Z,100771.66
2022-10-22T12:44:46.641Z,100776.44
2022-10-22T12:47:17.240Z,100775.78
2022-10-22T12:49:47.062Z,100768.72
2022-10-22T12:52:17.396Z,100764.41
2022-10-22T12:54:48.230Z,100759.38
2022-10-22T12:57:18.858Z,100766.78
2022-10-22T12:59:49.928Z,100763.09
2022-10-22T13:02:21.738Z,100770.41
2022-10-22T13:05:15.162Z,100766.16
2022-10-22T13:07:45.335Z,100773.09
2022-10-22T13:10:20.745Z,100770.25
2022-10-22T13:12:52.330Z,100769.00
2022-10-22T13:15:22.412Z,100770.75
2022-10-22T13:17:50.587Z,100779.06
2022-10-22T13:20:21.580Z,100780.50
2022-10-22T13:23:00.047Z,100773.31
2022-10-22T13:25:33.880Z,100775.59
2022-10-22T13:28:04.032Z,100774.13
2022-10-22T13:30:33.518Z,100775.38
2022-10-22T13:33:02.952Z,100772.22
2022-10-22T13:35:34.318Z,100784.94
2022-10-22T13:38:02.150Z,100783.47
2022-10-22T13:40:31.357Z,100780.44
2022-10-22T13:42:59.116Z,100778.16
2022-10-22T13:45:26.883Z,100777.84
2022-10-22T13:47:55.725Z,100785.25
2022-10-22T13:50:23.434Z,100782.81
2022-10-22T13:52:52.762Z,100776.44
2022-10-22T13:55:23.321Z,100780.25
2022-10-22T13:57:52.583Z,100793.59
2022-10-22T14:00:21.735Z,100789.50
2022-10-22T14:02:51.753Z,100792.84
2022-10-22T14:05:20.591Z,100791.03
2022-10-22T14:07:48.502Z,100789.34
2022-10-22T14:10:19.250Z,100794.16
2022-10-22T14:12:52.306Z,100797.72
2022-10-22T14:15:24.804Z,100786.59
2022-10-22T14:17:55.110Z,100802.91
2022-10-22T14:20:24.341Z,100791.63
2022-10-22T14:22:52.267Z,100801.94
2022-10-22T14:25:21.672Z,100806.47
2022-10-22T14:27:49.703Z,100804.63
2022-10-22T14:30:18.450Z,100798.06
2022-10-22T14:32:48.787Z,100797.28
2022-10-22T14:35:18.461Z,100797.16
2022-10-22T14:37:46.233Z,100803.59
2022-10-22T14:40:15.512Z,100808.25
2022-10-22T14:42:44.581Z,100807.75
2022-10-22T14:45:16.979Z,100805.25
2022-10-22T14:47:44.767Z,100813.09
2022-10-22T14:50:14.545Z,100813.28
2022-10-22T14:52:43.544Z,100822.78
2022-10-22T14:55:11.907Z,100815.88
2022-10-22T14:57:40.433Z,100832.13
2022-10-22T15:00:11.429Z,100816.34
2022-10-22T15:02:39.414Z,100817.75
2022-10-22T15:05:08.532Z,100821.56
2022-10-22T15:07:38.272Z,100815.88
2022-10-22T15:10:07.979Z,100816.94
2022-10-22T15:12:35.796Z,100823.97
2022-10-22T15:15:03.709Z,100826.00
2022-10-22T15:17:31.467Z,100825.03
2022-10-22T15:20:00.526Z,100821.38
2022-10-22T15:22:28.678Z,100826.94
2022-10-22T15:24:57.773Z,100828.97
2022-10-22T15:27:25.575Z,100833.78
2022-10-22T15:29:53.610Z,100834.25
2022-10-22T15:32:21.330Z,100834.34
2022-10-22T15:34:49.321Z,100834.50
2022-10-22T15:37:17.037Z,100837.81
2022-10-22T15:39:44.743Z,100842.88
2022-10-22T15:42:14.796Z,100832.41
2022-10-22T15:44:43.043Z,100848.94
2022-10-22T15:47:10.797Z,100844.38
2022-10-22T15:49:41.706Z,100846.09
2022-10-22T15:52:09.992Z,100845.09
2022-10-22T15:54:37.725Z,100845.22
2022-10-22T15:57:08.571Z,100853.41
2022-10-22T15:59:37.796Z,100844.91
2022-10-22T16:02:07.304Z,100852.88
2022-10-22T16:04:35.058Z,100848.69
2022-10-22T16:07:03.517Z,100851.88
2022-10-22T16:09:31.382Z,100848.84
2022-10-22T16:11:59.183Z,100847.25
2022-10-22T16:14:28.671Z,100851.59
2022-10-22T16:16:59.548Z,100850.03
2022-10-22T16:19:27.319Z,100861.59
2022-10-22T16:21:56.555Z,100859.41
2022-10-22T16:24:24.480Z,100869.53
2022-10-22T16:26:53.264Z,100866.66
2022-10-22T16:29:21.085Z,100863.03
2022-10-22T16:31:48.812Z,100875.81
2022-10-22T16:34:17.868Z,100875.31
2022-10-22T16:36:45.700Z,100872.56
2022-10-22T16:39:13.536Z,100873.31
2022-10-22T16:41:41.284Z,100871.69
2022-10-22T16:44:09.064Z,100877.03
2022-10-22T16:46:38.431Z,100879.09
2022-10-22T16:49:07.621Z,100880.97
2022-10-22T16:51:37.298Z,100887.09
2022-10-22T16:54:08.120Z,100892.84
2022-10-22T16:56:39.123Z,100892.97
2022-10-22T16:59:07.342Z,100893.50
2022-10-22T17:01:40.350Z,100913.34
2022-10-22T17:04:08.839Z,100907.91
2022-10-22T17:06:37.938Z,100916.19
2022-10-22T17:09:06.001Z,100920.19
2022-10-22T17:11:36.363Z,100920.19
2022-10-22T17:14:06.087Z,100925.56
2022-10-22T17:16:33.821Z,100928.22
2022-10-22T17:19:03.955Z,100926.81
2022-10-22T17:21:31.875Z,100932.09
2022-10-22T17:24:00.932Z,100938.69
2022-10-22T17:26:28.621Z,100936.91
2022-10-22T17:28:56.396Z,100935.72
2022-10-22T17:31:25.760Z,100938.81
2022-10-22T17:33:55.532Z,100938.78
2022-10-22T17:36:24.290Z,100944.16
2022-10-22T17:38:53.668Z,100947.50
2022-10-22T17:41:24.295Z,100956.41
2022-10-22T17:43:52.230Z,100959.03
2022-10-22T17:46:21.451Z,100960.50
2022-10-22T17:48:52.834Z,100954.06
2022-10-22T17:51:21.371Z,100961.56
2022-10-22T17:53:50.189Z,100954.63
2022-10-22T17:56:19.746Z,100960.19
2022-10-22T17:58:48.933Z,100955.63
2022-10-22T18:01:21.576Z,100960.00
2022-10-22T18:03:49.840Z,100962.19
2022-10-22T18:06:17.712Z,100953.97
2022-10-22T18:08:45.860Z,100956.28
2022-10-22T18:11:17.659Z,100954.72
2022-10-22T18:13:47.559Z,100951.00
2022-10-22T18:16:16.599Z,100959.72
2022-10-22T18:18:46.223Z,100958.22
2022-10-22T18:21:14.457Z,100972.09
2022-10-22T18:23:42.387Z,100972.72
2022-10-22T18:26:10.237Z,100964.66
2022-10-22T18:28:38.216Z,100968.47
2022-10-22T18:31:07.202Z,100973.44
2022-10-22T18:33:36.900Z,100970.75
2022-10-22T18:36:05.912Z,100979.19
2022-10-22T18:38:34.043Z,100970.03
2022-10-22T18:41:01.877Z,100971.66
2022-10-22T18:43:29.629Z,100962.09
2022-10-22T18:45:57.395Z,100971.59
2022-10-22T18:48:25.266Z,100973.63
2022-10-22T18:51:01.813Z,100970.66
2022-10-22T18:53:29.771Z,100977.84
2022-10-22T18:55:57.496Z,100975.91
2022-10-22T18:58:25.281Z,100975.19
2022-10-22T19:00:53.104Z,100976.22
2022-10-22T19:03:20.957Z,100968.09
2022-10-22T19:05:50.900Z,100975.31
2022-10-22T19:08:20.834Z,100982.03
2022-10-22T19:10:49.085Z,100979.66
2022-10-22T19:13:18.857Z,100979.28
2022-10-22T19:15:46.635Z,100986.56
2022-10-22T19:18:15.051Z,100981.28
2022-10-22T19:20:44.418Z,100991.63
2022-10-22T19:23:12.193Z,100991.84
2022-10-22T19:25:41.583Z,100991.69
2022-10-22T19:28:09.341Z,100998.00
2022-10-22T19:30:37.123Z,100996.53
2022-10-22T19:33:04.913Z,100997.94
2022-10-22T19:35:32.657Z,101005.25
2022-10-22T19:38:00.437Z,101006.53
2022-10-22T19:40:28.586Z,100999.97
2022-10-22T19:42:57.630Z,101007.25
2022-10-22T19:45:25.374Z,101003.66
2022-10-22T19:47:53.116Z,101006.50
2022-10-22T19:50:20.991Z,101010.63
2022-10-22T19:52:48.716Z,101016.44
2022-10-22T19:55:16.562Z,101018.91
2022-10-22T19:57:44.622Z,101027.72
2022-10-22T20:00:14.770Z,101027.16
2022-10-22T20:02:42.636Z,101026.41
2022-10-22T20:05:10.970Z,101038.63
2022-10-22T20:07:38.977Z,101036.19
2022-10-22T20:10:07.519Z,101040.03
2022-10-22T20:12:35.328Z,101036.63
2022-10-22T20:15:04.337Z,101046.03
2022-10-22T20:17:33.953Z,101049.13
2022-10-22T20:20:01.674Z,101043.88
2022-10-22T20:22:29.398Z,101052.66
2022-10-22T20:24:57.076Z,101050.13
2022-10-22T20:27:25.291Z,101053.19
2022-10-22T20:29:53.300Z,101055.91
2022-10-22T20:32:22.056Z,101050.19
2022-10-22T20:34:51.120Z,101060.91
2022-10-22T20:37:18.843Z,101064.31
2022-10-22T20:39:46.530Z,101063.09
2022-10-22T20:42:15.399Z,101062.47
2022-10-22T20:44:43.148Z,101066.41
2022-10-22T20:47:13.630Z,101063.81
2022-10-22T20:49:41.594Z,101068.38
2022-10-22T20:52:10.709Z,101073.59
2022-10-22T20:54:41.446Z,101069.72
2022-10-22T20:57:09.550Z,101068.44
2022-10-22T20:59:37.346Z,101076.00
2022-10-22T21:02:05.465Z,101071.66
2022-10-22T21:04:33.496Z,101085.66
2022-10-22T21:07:02.894Z,101085.00
2022-10-22T21:09:34.162Z,101077.38
2022-10-22T21:12:03.490Z,101079.59
2022-10-22T21:14:31.344Z,101090.78
2022-10-22T21:17:00.216Z,101088.19
2022-10-22T21:19:28.709Z,101088.75
2022-10-22T21:21:56.408Z,101093.25
2022-10-22T21:24:26.209Z,101096.16
2022-10-22T21:26:55.264Z,101096.72
2022-10-22T21:29:23.018Z,101099.84
2022-10-22T21:31:50.693Z,101104.28
2022-10-22T21:34:18.455Z,101106.44
2022-10-22T21:39:14.948Z,101100.78
2022-10-22T21:41:42.668Z,101115.09
2022-10-22T21:44:11.783Z,101118.81
2022-10-22T21:46:39.497Z,101111.25
2022-10-22T21:49:07.261Z,101118.53
2022-10-22T21:51:38.085Z,101115.63
2022-10-22T21:54:06.284Z,101116.72
2022-10-22T21:56:36.600Z,101115.72
2022-10-22T21:59:05.236Z,101105.13
2022-10-22T22:01:34.766Z,101113.91
2022-10-22T22:04:04.219Z,101115.22
2022-10-22T22:06:33.670Z,101112.97
2022-10-22T22:09:02.990Z,101117.31
2022-10-22T22:11:31.366Z,101107.69
2022-10-22T22:13:59.830Z,101097.34
2022-10-22T22:16:29.134Z,101108.22
2022-10-22T22:19:00.451Z,101102.19
2022-10-22T22:21:28.580Z,101106.94
2022-10-22T22:23:56.497Z,101109.44
2022-10-22T22:26:28.591Z,101109.34
2022-10-22T22:28:58.535Z,101109.28
2022-10-22T22:31:27.924Z,101112.88
2022-10-22T22:34:01.076Z,101103.34
2022-10-22T22:36:28.925Z,101104.44
2022-10-22T22:38:56.943Z,101103.06
2022-10-22T22:41:24.936Z,101100.88
2022-10-22T22:43:52.770Z,101103.41
2022-10-22T22:46:20.608Z,101108.59
2022-10-22T22:48:48.670Z,101107.56
2022-10-22T22:51:17.952Z,101112.66
2022-10-22T22:53:45.778Z,101099.03
2022-10-22T22:56:15.166Z,101111.25
2022-10-22T22:58:43.034Z,101105.78
2022-10-22T23:01:15.774Z,101111.66
2022-10-22T23:03:45.612Z,101100.56
2022-10-22T23:06:13.737Z,101104.69
2022-10-22T23:08:43.222Z,101103.34
2022-10-22T23:11:12.427Z,101104.81
2022-10-22T23:13:40.623Z,101114.81
2022-10-22T23:16:09.836Z,101101.88
2022-10-22T23:18:37.502Z,101104.63
2022-10-22T23:21:06.501Z,101111.22
2022-10-22T23:23:34.589Z,101114.09
2022-10-22T23:26:03.954Z,101120.06
2022-10-22T23:28:31.771Z,101121.09
2022-10-22T23:30:59.497Z,101122.66
2022-10-22T23:33:27.576Z,101120.34
2022-10-22T23:35:55.114Z,101124.41
2022-10-22T23:38:22.652Z,101119.13
2022-10-22T23:40:54.606Z,101122.47
2022-10-22T23:43:23.716Z,101124.59
2022-10-22T23:45:51.475Z,101122.41
2022-10-22T23:48:19.656Z,101119.19
2022-10-22T23:50:47.709Z,101116.38
2022-10-22T23:53:15.706Z,101118.50
2022-10-22T23:55:44.575Z,101118.03
2022-10-22T23:58:12.690Z,101118.59
